sensor_id;sensor_type;location;lat;lon;timestamp;P1;durP1;ratioP1;P2;durP2;ratioP2
6255;SDS011;3161;48.794;9.784;2022-09-20T00:01:10;0.60;;;0.60;;
6255;SDS011;3161;48.794;9.784;2022-09-20T00:03:40;1.40;;;0.63;;
6255;SDS011;3161;48.794;9.784;2022-09-20T00:06:12;0.60;;;0.60;;
6255;SDS011;3161;48.794;9.784;2022-09-20T00:08:43;2.47;;;0.50;;
6255;SDS011;3161;48.794;9.784;2022-09-20T00:11:16;0.50;;;0.50;;
6255;SDS011;3161;48.794;9.784;2022-09-20T00:13:46;0.50;;;0.50;;
6255;SDS011;3161;48.794;9.784;2022-09-20T00:16:20;0.60;;;0.60;;
6255;SDS011;3161;48.794;9.784;2022-09-20T00:18:50;0.50;;;0.50;;
6255;SDS011;3161;48.794;9.784;2022-09-20T00:21:19;0.70;;;0.67;;
6255;SDS011;3161;48.794;9.784;2022-09-20T00:23:48;0.70;;;0.70;;
6255;SDS011;3161;48.794;9.784;2022-09-20T00:26:17;0.77;;;0.67;;
6255;SDS011;3161;48.794;9.784;2022-09-20T00:28:46;2.60;;;0.70;;
6255;SDS011;3161;48.794;9.784;2022-09-20T00:31:14;0.97;;;0.80;;
6255;SDS011;3161;48.794;9.784;2022-09-20T00:33:41;3.50;;;0.83;;
6255;SDS011;3161;48.794;9.784;2022-09-20T00:36:27;2.33;;;0.70;;
6255;SDS011;3161;48.794;9.784;2022-09-20T00:38:56;0.50;;;0.50;;
6255;SDS011;3161;48.794;9.784;2022-09-20T00:41:25;3.60;;;0.80;;
6255;SDS011;3161;48.794;9.784;2022-09-20T00:43:54;1.70;;;0.60;;
6255;SDS011;3161;48.794;9.784;2022-09-20T00:46:27;0.70;;;0.70;;
6255;SDS011;3161;48.794;9.784;2022-09-20T00:48:58;0.60;;;0.60;;
6255;SDS011;3161;48.794;9.784;2022-09-20T00:51:27;0.60;;;0.60;;
6255;SDS011;3161;48.794;9.784;2022-09-20T00:53:57;1.80;;;0.60;;
6255;SDS011;3161;48.794;9.784;2022-09-20T00:56:28;0.60;;;0.60;;
6255;SDS011;3161;48.794;9.784;2022-09-20T00:59:05;6.47;;;0.73;;
6255;SDS011;3161;48.794;9.784;2022-09-20T01:01:33;0.93;;;0.93;;
6255;SDS011;3161;48.794;9.784;2022-09-20T01:04:02;1.03;;;0.67;;
6255;SDS011;3161;48.794;9.784;2022-09-20T01:06:30;1.37;;;0.73;;
6255;SDS011;3161;48.794;9.784;2022-09-20T01:08:59;1.03;;;0.80;;
6255;SDS011;3161;48.794;9.784;2022-09-20T01:11:30;1.80;;;1.10;;
6255;SDS011;3161;48.794;9.784;2022-09-20T01:13:59;0.80;;;0.80;;
6255;SDS011;3161;48.794;9.784;2022-09-20T01:16:27;4.67;;;1.37;;
6255;SDS011;3161;48.794;9.784;2022-09-20T01:18:57;3.40;;;1.00;;
6255;SDS011;3161;48.794;9.784;2022-09-20T01:21:27;1.70;;;1.60;;
6255;SDS011;3161;48.794;9.784;2022-09-20T01:24:11;1.40;;;1.10;;
6255;SDS011;3161;48.794;9.784;2022-09-20T01:31:54;1.23;;;1.13;;
6255;SDS011;3161;48.794;9.784;2022-09-20T01:34:27;1.77;;;1.40;;
6255;SDS011;3161;48.794;9.784;2022-09-20T01:37:05;2.70;;;1.40;;
6255;SDS011;3161;48.794;9.784;2022-09-20T01:40:11;1.37;;;1.20;;
6255;SDS011;3161;48.794;9.784;2022-09-20T01:42:37;1.10;;;1.10;;
6255;SDS011;3161;48.794;9.784;2022-09-20T01:45:22;2.57;;;1.47;;
6255;SDS011;3161;48.794;9.784;2022-09-20T01:56:33;3.07;;;1.83;;
6255;SDS011;3161;48.794;9.784;2022-09-20T02:04:30;1.50;;;1.40;;
6255;SDS011;3161;48.794;9.784;2022-09-20T02:10:18;1.40;;;1.30;;
6255;SDS011;3161;48.794;9.784;2022-09-20T02:12:57;1.67;;;1.40;;
6255;SDS011;3161;48.794;9.784;2022-09-20T02:20:43;1.33;;;1.20;;
6255;SDS011;3161;48.794;9.784;2022-09-20T02:23:20;3.47;;;1.50;;
6255;SDS011;3161;48.794;9.784;2022-09-20T02:25:54;2.83;;;1.33;;
6255;SDS011;3161;48.794;9.784;2022-09-20T02:28:47;1.30;;;1.20;;
6255;SDS011;3161;48.794;9.784;2022-09-20T02:31:27;1.87;;;1.47;;
6255;SDS011;3161;48.794;9.784;2022-09-20T02:34:09;4.47;;;1.40;;
6255;SDS011;3161;48.794;9.784;2022-09-20T02:36:52;1.40;;;1.30;;
6255;SDS011;3161;48.794;9.784;2022-09-20T02:39:21;1.50;;;1.40;;
6255;SDS011;3161;48.794;9.784;2022-09-20T02:41:54;1.97;;;1.63;;
6255;SDS011;3161;48.794;9.784;2022-09-20T02:44:38;4.57;;;1.50;;
6255;SDS011;3161;48.794;9.784;2022-09-20T02:47:24;3.43;;;2.13;;
6255;SDS011;3161;48.794;9.784;2022-09-20T02:52:37;1.20;;;1.20;;
6255;SDS011;3161;48.794;9.784;2022-09-20T03:06:10;5.33;;;1.30;;
6255;SDS011;3161;48.794;9.784;2022-09-20T03:08:55;6.47;;;1.47;;
6255;SDS011;3161;48.794;9.784;2022-09-20T03:28:23;1.30;;;1.10;;
6255;SDS011;3161;48.794;9.784;2022-09-20T03:30:59;2.07;;;0.97;;
6255;SDS011;3161;48.794;9.784;2022-09-20T03:36:52;4.63;;;1.43;;
6255;SDS011;3161;48.794;9.784;2022-09-20T03:39:25;3.30;;;1.13;;
6255;SDS011;3161;48.794;9.784;2022-09-20T03:44:49;4.57;;;1.30;;
6255;SDS011;3161;48.794;9.784;2022-09-20T03:50:22;3.43;;;0.80;;
6255;SDS011;3161;48.794;9.784;2022-09-20T03:53:08;1.57;;;0.83;;
6255;SDS011;3161;48.794;9.784;2022-09-20T04:01:39;1.23;;;1.20;;
6255;SDS011;3161;48.794;9.784;2022-09-20T04:04:37;0.90;;;0.90;;
6255;SDS011;3161;48.794;9.784;2022-09-20T04:10:02;1.23;;;1.00;;
6255;SDS011;3161;48.794;9.784;2022-09-20T04:12:34;1.20;;;1.13;;
6255;SDS011;3161;48.794;9.784;2022-09-20T04:15:22;3.17;;;1.40;;
6255;SDS011;3161;48.794;9.784;2022-09-20T04:18:10;3.10;;;1.47;;
6255;SDS011;3161;48.794;9.784;2022-09-20T04:20:59;2.37;;;1.03;;
6255;SDS011;3161;48.794;9.784;2022-09-20T04:26:00;0.87;;;0.87;;
6255;SDS011;3161;48.794;9.784;2022-09-20T04:31:16;2.00;;;0.87;;
6255;SDS011;3161;48.794;9.784;2022-09-20T04:33:53;1.47;;;1.10;;
6255;SDS011;3161;48.794;9.784;2022-09-20T04:37:14;4.83;;;1.87;;
6255;SDS011;3161;48.794;9.784;2022-09-20T04:41:39;0.97;;;0.97;;
6255;SDS011;3161;48.794;9.784;2022-09-20T04:49:56;1.50;;;0.97;;
6255;SDS011;3161;48.794;9.784;2022-09-20T05:03:29;7.03;;;1.30;;
6255;SDS011;3161;48.794;9.784;2022-09-20T05:08:50;4.67;;;1.20;;
6255;SDS011;3161;48.794;9.784;2022-09-20T05:14:19;2.07;;;1.10;;
6255;SDS011;3161;48.794;9.784;2022-09-20T05:30:38;1.40;;;1.30;;
6255;SDS011;3161;48.794;9.784;2022-09-20T05:33:28;4.10;;;1.13;;
6255;SDS011;3161;48.794;9.784;2022-09-20T05:38:57;5.20;;;1.10;;
6255;SDS011;3161;48.794;9.784;2022-09-20T05:44:10;1.83;;;1.03;;
6255;SDS011;3161;48.794;9.784;2022-09-20T05:46:56;4.30;;;1.30;;
6255;SDS011;3161;48.794;9.784;2022-09-20T05:54:46;2.47;;;1.10;;
6255;SDS011;3161;48.794;9.784;2022-09-20T06:03:01;1.77;;;1.03;;
6255;SDS011;3161;48.794;9.784;2022-09-20T06:05:48;2.63;;;1.27;;
6255;SDS011;3161;48.794;9.784;2022-09-20T06:08:49;4.00;;;1.40;;
6255;SDS011;3161;48.794;9.784;2022-09-20T06:11:39;2.73;;;1.27;;
6255;SDS011;3161;48.794;9.784;2022-09-20T06:14:24;3.50;;;1.63;;
6255;SDS011;3161;48.794;9.784;2022-09-20T06:17:13;1.57;;;1.47;;
6255;SDS011;3161;48.794;9.784;2022-09-20T06:20:09;1.63;;;1.53;;
6255;SDS011;3161;48.794;9.784;2022-09-20T06:22:53;3.67;;;1.87;;
6255;SDS011;3161;48.794;9.784;2022-09-20T06:25:28;5.50;;;1.97;;
6255;SDS011;3161;48.794;9.784;2022-09-20T06:28:03;1.90;;;1.77;;
6255;SDS011;3161;48.794;9.784;2022-09-20T06:30:35;6.57;;;2.33;;
6255;SDS011;3161;48.794;9.784;2022-09-20T06:35:36;2.77;;;2.43;;
6255;SDS011;3161;48.794;9.784;2022-09-20T06:41:23;2.37;;;1.50;;
6255;SDS011;3161;48.794;9.784;2022-09-20T06:43:55;2.63;;;1.90;;
6255;SDS011;3161;48.794;9.784;2022-09-20T06:46:30;5.60;;;2.20;;
6255;SDS011;3161;48.794;9.784;2022-09-20T06:48:59;6.93;;;1.60;;
6255;SDS011;3161;48.794;9.784;2022-09-20T06:51:28;2.27;;;1.67;;
6255;SDS011;3161;48.794;9.784;2022-09-20T06:53:57;1.97;;;1.73;;
6255;SDS011;3161;48.794;9.784;2022-09-20T06:56:30;3.53;;;1.53;;
6255;SDS011;3161;48.794;9.784;2022-09-20T06:58:55;6.10;;;2.00;;
6255;SDS011;3161;48.794;9.784;2022-09-20T07:01:23;3.37;;;2.67;;
6255;SDS011;3161;48.794;9.784;2022-09-20T07:03:51;7.97;;;3.10;;
6255;SDS011;3161;48.794;9.784;2022-09-20T07:06:18;5.17;;;2.80;;
6255;SDS011;3161;48.794;9.784;2022-09-20T07:08:46;4.03;;;2.67;;
6255;SDS011;3161;48.794;9.784;2022-09-20T07:11:15;3.50;;;2.63;;
6255;SDS011;3161;48.794;9.784;2022-09-20T07:13:43;6.53;;;3.80;;
6255;SDS011;3161;48.794;9.784;2022-09-20T07:16:11;6.43;;;3.67;;
6255;SDS011;3161;48.794;9.784;2022-09-20T07:18:41;5.43;;;2.30;;
6255;SDS011;3161;48.794;9.784;2022-09-20T07:21:14;2.17;;;1.80;;
6255;SDS011;3161;48.794;9.784;2022-09-20T07:23:39;3.83;;;1.90;;
6255;SDS011;3161;48.794;9.784;2022-09-20T07:26:11;5.50;;;1.57;;
6255;SDS011;3161;48.794;9.784;2022-09-20T07:28:45;1.73;;;1.63;;
6255;SDS011;3161;48.794;9.784;2022-09-20T07:31:15;3.93;;;1.30;;
6255;SDS011;3161;48.794;9.784;2022-09-20T07:33:44;3.90;;;1.67;;
6255;SDS011;3161;48.794;9.784;2022-09-20T07:36:12;1.50;;;1.37;;
6255;SDS011;3161;48.794;9.784;2022-09-20T07:38:39;5.67;;;1.73;;
6255;SDS011;3161;48.794;9.784;2022-09-20T07:41:08;2.03;;;1.63;;
6255;SDS011;3161;48.794;9.784;2022-09-20T07:43:35;3.80;;;1.60;;
6255;SDS011;3161;48.794;9.784;2022-09-20T07:46:03;9.17;;;1.93;;
6255;SDS011;3161;48.794;9.784;2022-09-20T07:48:32;9.27;;;1.50;;
6255;SDS011;3161;48.794;9.784;2022-09-20T07:51:10;10.17;;;1.73;;
6255;SDS011;3161;48.794;9.784;2022-09-20T07:53:39;8.27;;;1.33;;
6255;SDS011;3161;48.794;9.784;2022-09-20T07:56:09;3.50;;;1.67;;
6255;SDS011;3161;48.794;9.784;2022-09-20T07:58:37;3.97;;;1.60;;
6255;SDS011;3161;48.794;9.784;2022-09-20T08:01:07;2.53;;;1.43;;
6255;SDS011;3161;48.794;9.784;2022-09-20T08:03:37;9.87;;;1.50;;
6255;SDS011;3161;48.794;9.784;2022-09-20T08:06:09;1.33;;;1.23;;
6255;SDS011;3161;48.794;9.784;2022-09-20T08:08:39;4.33;;;1.77;;
6255;SDS011;3161;48.794;9.784;2022-09-20T08:11:13;4.13;;;1.13;;
6255;SDS011;3161;48.794;9.784;2022-09-20T08:13:39;5.37;;;1.40;;
6255;SDS011;3161;48.794;9.784;2022-09-20T08:16:09;2.53;;;1.30;;
6255;SDS011;3161;48.794;9.784;2022-09-20T08:18:39;2.97;;;1.37;;
6255;SDS011;3161;48.794;9.784;2022-09-20T08:21:18;9.90;;;3.70;;
6255;SDS011;3161;48.794;9.784;2022-09-20T08:23:46;1.90;;;1.20;;
6255;SDS011;3161;48.794;9.784;2022-09-20T08:26:18;2.73;;;1.40;;
6255;SDS011;3161;48.794;9.784;2022-09-20T08:28:55;8.67;;;4.27;;
6255;SDS011;3161;48.794;9.784;2022-09-20T08:31:29;5.97;;;2.00;;
6255;SDS011;3161;48.794;9.784;2022-09-20T08:34:00;15.13;;;6.17;;
6255;SDS011;3161;48.794;9.784;2022-09-20T08:36:34;21.03;;;5.00;;
6255;SDS011;3161;48.794;9.784;2022-09-20T08:39:03;4.23;;;1.80;;
6255;SDS011;3161;48.794;9.784;2022-09-20T08:41:32;3.73;;;1.30;;
6255;SDS011;3161;48.794;9.784;2022-09-20T08:44:12;2.73;;;1.20;;
6255;SDS011;3161;48.794;9.784;2022-09-20T08:46:48;4.03;;;1.23;;
6255;SDS011;3161;48.794;9.784;2022-09-20T08:49:31;4.50;;;0.90;;
6255;SDS011;3161;48.794;9.784;2022-09-20T08:51:58;4.03;;;1.80;;
6255;SDS011;3161;48.794;9.784;2022-09-20T08:54:33;9.43;;;2.53;;
6255;SDS011;3161;48.794;9.784;2022-09-20T08:57:03;5.23;;;2.33;;
6255;SDS011;3161;48.794;9.784;2022-09-20T08:59:30;11.50;;;3.13;;
6255;SDS011;3161;48.794;9.784;2022-09-20T09:01:58;7.43;;;1.87;;
6255;SDS011;3161;48.794;9.784;2022-09-20T09:04:33;3.37;;;1.47;;
6255;SDS011;3161;48.794;9.784;2022-09-20T09:06:59;1.40;;;0.90;;
6255;SDS011;3161;48.794;9.784;2022-09-20T09:09:27;2.97;;;1.57;;
6255;SDS011;3161;48.794;9.784;2022-09-20T09:11:56;3.03;;;1.00;;
6255;SDS011;3161;48.794;9.784;2022-09-20T09:14:30;5.83;;;2.13;;
6255;SDS011;3161;48.794;9.784;2022-09-20T09:17:20;13.63;;;3.60;;
6255;SDS011;3161;48.794;9.784;2022-09-20T09:19:51;8.03;;;1.90;;
6255;SDS011;3161;48.794;9.784;2022-09-20T09:22:22;2.20;;;0.97;;
6255;SDS011;3161;48.794;9.784;2022-09-20T09:27:56;1.37;;;0.80;;
6255;SDS011;3161;48.794;9.784;2022-09-20T09:36:12;6.50;;;0.90;;
6255;SDS011;3161;48.794;9.784;2022-09-20T09:38:42;5.60;;;1.17;;
6255;SDS011;3161;48.794;9.784;2022-09-20T09:41:24;5.00;;;0.83;;
6255;SDS011;3161;48.794;9.784;2022-09-20T09:43:58;1.43;;;0.80;;
6255;SDS011;3161;48.794;9.784;2022-09-20T09:46:34;8.27;;;1.27;;
6255;SDS011;3161;48.794;9.784;2022-09-20T09:49:04;3.43;;;1.03;;
6255;SDS011;3161;48.794;9.784;2022-09-20T09:51:34;2.60;;;1.00;;
6255;SDS011;3161;48.794;9.784;2022-09-20T09:54:02;2.17;;;1.07;;
6255;SDS011;3161;48.794;9.784;2022-09-20T10:01:52;6.37;;;1.10;;
6255;SDS011;3161;48.794;9.784;2022-09-20T10:10:11;2.00;;;1.10;;
6255;SDS011;3161;48.794;9.784;2022-09-20T10:15:29;2.50;;;0.80;;
6255;SDS011;3161;48.794;9.784;2022-09-20T10:20:59;16.93;;;0.80;;
6255;SDS011;3161;48.794;9.784;2022-09-20T10:29:27;1.63;;;1.17;;
6255;SDS011;3161;48.794;9.784;2022-09-20T10:32:00;2.17;;;1.00;;
6255;SDS011;3161;48.794;9.784;2022-09-20T10:34:37;2.07;;;1.07;;
6255;SDS011;3161;48.794;9.784;2022-09-20T10:37:27;5.50;;;1.00;;
6255;SDS011;3161;48.794;9.784;2022-09-20T10:40:06;1.50;;;0.93;;
6255;SDS011;3161;48.794;9.784;2022-09-20T10:42:43;12.10;;;0.97;;
6255;SDS011;3161;48.794;9.784;2022-09-20T10:45:46;5.53;;;1.23;;
6255;SDS011;3161;48.794;9.784;2022-09-20T10:48:50;4.40;;;1.80;;
6255;SDS011;3161;48.794;9.784;2022-09-20T10:51:20;2.70;;;1.27;;
6255;SDS011;3161;48.794;9.784;2022-09-20T10:56:37;5.90;;;0.97;;
6255;SDS011;3161;48.794;9.784;2022-09-20T11:02:15;3.37;;;1.17;;
6255;SDS011;3161;48.794;9.784;2022-09-20T11:10:05;6.30;;;2.47;;
6255;SDS011;3161;48.794;9.784;2022-09-20T11:12:59;2.77;;;1.27;;
6255;SDS011;3161;48.794;9.784;2022-09-20T11:15:40;8.50;;;1.63;;
6255;SDS011;3161;48.794;9.784;2022-09-20T11:20:50;3.60;;;1.23;;
6255;SDS011;3161;48.794;9.784;2022-09-20T11:23:33;1.53;;;0.83;;
6255;SDS011;3161;48.794;9.784;2022-09-20T11:26:04;1.03;;;0.60;;
6255;SDS011;3161;48.794;9.784;2022-09-20T11:28:45;3.97;;;0.90;;
6255;SDS011;3161;48.794;9.784;2022-09-20T11:31:22;3.30;;;1.00;;
6255;SDS011;3161;48.794;9.784;2022-09-20T11:33:52;0.80;;;0.70;;
6255;SDS011;3161;48.794;9.784;2022-09-20T11:36:24;2.97;;;1.00;;
6255;SDS011;3161;48.794;9.784;2022-09-20T11:39:02;2.37;;;1.00;;
6255;SDS011;3161;48.794;9.784;2022-09-20T11:41:32;1.40;;;0.77;;
6255;SDS011;3161;48.794;9.784;2022-09-20T11:44:05;8.63;;;1.57;;
6255;SDS011;3161;48.794;9.784;2022-09-20T11:46:39;7.50;;;1.40;;
6255;SDS011;3161;48.794;9.784;2022-09-20T11:49:14;3.40;;;0.63;;
6255;SDS011;3161;48.794;9.784;2022-09-20T11:52:08;8.17;;;0.70;;
6255;SDS011;3161;48.794;9.784;2022-09-20T11:57:12;2.30;;;0.90;;
6255;SDS011;3161;48.794;9.784;2022-09-20T11:59:43;3.03;;;0.90;;
6255;SDS011;3161;48.794;9.784;2022-09-20T12:02:21;0.90;;;0.70;;
6255;SDS011;3161;48.794;9.784;2022-09-20T12:04:55;2.43;;;0.60;;
6255;SDS011;3161;48.794;9.784;2022-09-20T12:07:25;2.13;;;0.70;;
6255;SDS011;3161;48.794;9.784;2022-09-20T12:09:58;6.70;;;0.83;;
6255;SDS011;3161;48.794;9.784;2022-09-20T12:12:40;13.93;;;1.07;;
6255;SDS011;3161;48.794;9.784;2022-09-20T12:26:07;1.33;;;0.73;;
6255;SDS011;3161;48.794;9.784;2022-09-20T12:28:40;1.80;;;0.90;;
6255;SDS011;3161;48.794;9.784;2022-09-20T12:36:41;0.63;;;0.60;;
6255;SDS011;3161;48.794;9.784;2022-09-20T12:44:40;2.17;;;0.60;;
6255;SDS011;3161;48.794;9.784;2022-09-20T12:52:36;3.80;;;0.50;;
6255;SDS011;3161;48.794;9.784;2022-09-20T13:03:31;1.33;;;0.53;;
6255;SDS011;3161;48.794;9.784;2022-09-20T13:16:51;3.93;;;0.87;;
6255;SDS011;3161;48.794;9.784;2022-09-20T13:19:31;4.23;;;1.03;;
6255;SDS011;3161;48.794;9.784;2022-09-20T13:22:05;2.17;;;0.67;;
6255;SDS011;3161;48.794;9.784;2022-09-20T13:24:55;2.10;;;0.73;;
6255;SDS011;3161;48.794;9.784;2022-09-20T13:27:21;3.30;;;0.70;;
6255;SDS011;3161;48.794;9.784;2022-09-20T13:29:52;2.67;;;0.57;;
6255;SDS011;3161;48.794;9.784;2022-09-20T13:32:26;1.57;;;0.70;;
6255;SDS011;3161;48.794;9.784;2022-09-20T13:35:05;4.97;;;0.83;;
6255;SDS011;3161;48.794;9.784;2022-09-20T13:37:37;3.03;;;0.80;;
6255;SDS011;3161;48.794;9.784;2022-09-20T13:40:21;1.27;;;1.00;;
6255;SDS011;3161;48.794;9.784;2022-09-20T13:42:47;2.60;;;0.93;;
6255;SDS011;3161;48.794;9.784;2022-09-20T13:45:16;0.93;;;0.63;;
6255;SDS011;3161;48.794;9.784;2022-09-20T13:47:49;4.67;;;1.10;;
6255;SDS011;3161;48.794;9.784;2022-09-20T13:52:53;1.77;;;0.53;;
6255;SDS011;3161;48.794;9.784;2022-09-20T13:55:43;1.43;;;0.60;;
6255;SDS011;3161;48.794;9.784;2022-09-20T13:57:55;4.63;;;0.90;;
6255;SDS011;3161;48.794;9.784;2022-09-20T14:00:24;3.83;;;1.07;;
6255;SDS011;3161;48.794;9.784;2022-09-20T14:02:53;2.20;;;0.70;;
6255;SDS011;3161;48.794;9.784;2022-09-20T14:05:24;4.40;;;0.40;;
6255;SDS011;3161;48.794;9.784;2022-09-20T14:07:53;3.10;;;0.50;;
6255;SDS011;3161;48.794;9.784;2022-09-20T14:13:01;1.17;;;0.50;;
6255;SDS011;3161;48.794;9.784;2022-09-20T14:15:33;1.53;;;0.70;;
6255;SDS011;3161;48.794;9.784;2022-09-20T14:18:04;3.97;;;0.67;;
6255;SDS011;3161;48.794;9.784;2022-09-20T14:20:34;4.67;;;1.10;;
6255;SDS011;3161;48.794;9.784;2022-09-20T14:23:01;1.20;;;0.60;;
6255;SDS011;3161;48.794;9.784;2022-09-20T14:25:29;2.07;;;0.90;;
6255;SDS011;3161;48.794;9.784;2022-09-20T14:28:15;1.40;;;0.53;;
6255;SDS011;3161;48.794;9.784;2022-09-20T14:30:45;1.63;;;0.53;;
6255;SDS011;3161;48.794;9.784;2022-09-20T14:33:15;0.60;;;0.60;;
6255;SDS011;3161;48.794;9.784;2022-09-20T14:35:50;3.13;;;1.00;;
6255;SDS011;3161;48.794;9.784;2022-09-20T14:38:15;0.60;;;0.60;;
6255;SDS011;3161;48.794;9.784;2022-09-20T14:40:46;3.10;;;1.00;;
6255;SDS011;3161;48.794;9.784;2022-09-20T14:43:25;0.80;;;0.47;;
6255;SDS011;3161;48.794;9.784;2022-09-20T14:46:05;1.63;;;0.50;;
6255;SDS011;3161;48.794;9.784;2022-09-20T14:48:31;1.12;;;0.75;;
6255;SDS011;3161;48.794;9.784;2022-09-20T14:53:49;6.67;;;0.82;;
6255;SDS011;3161;48.794;9.784;2022-09-20T14:56:25;2.60;;;0.70;;
6255;SDS011;3161;48.794;9.784;2022-09-20T15:01:41;11.57;;;1.12;;
6255;SDS011;3161;48.794;9.784;2022-09-20T15:04:20;0.90;;;0.70;;
6255;SDS011;3161;48.794;9.784;2022-09-20T15:06:46;2.15;;;0.50;;
6255;SDS011;3161;48.794;9.784;2022-09-20T15:09:14;2.08;;;0.80;;
6255;SDS011;3161;48.794;9.784;2022-09-20T15:11:43;2.40;;;0.62;;
6255;SDS011;3161;48.794;9.784;2022-09-20T15:14:11;3.02;;;0.65;;
6255;SDS011;3161;48.794;9.784;2022-09-20T15:16:39;2.45;;;0.88;;
6255;SDS011;3161;48.794;9.784;2022-09-20T15:19:07;1.45;;;0.47;;
6255;SDS011;3161;48.794;9.784;2022-09-20T15:21:35;4.15;;;0.68;;
6255;SDS011;3161;48.794;9.784;2022-09-20T15:24:03;3.37;;;0.82;;
6255;SDS011;3161;48.794;9.784;2022-09-20T15:26:31;3.33;;;0.50;;
6255;SDS011;3161;48.794;9.784;2022-09-20T15:28:59;2.47;;;0.73;;
6255;SDS011;3161;48.794;9.784;2022-09-20T15:31:26;2.60;;;0.97;;
6255;SDS011;3161;48.794;9.784;2022-09-20T15:33:54;3.60;;;0.57;;
6255;SDS011;3161;48.794;9.784;2022-09-20T15:36:22;7.77;;;1.03;;
6255;SDS011;3161;48.794;9.784;2022-09-20T15:38:52;2.73;;;0.73;;
6255;SDS011;3161;48.794;9.784;2022-09-20T15:41:20;0.80;;;0.50;;
6255;SDS011;3161;48.794;9.784;2022-09-20T15:43:48;5.70;;;0.77;;
6255;SDS011;3161;48.794;9.784;2022-09-20T15:46:22;2.33;;;1.03;;
6255;SDS011;3161;48.794;9.784;2022-09-20T15:48:54;0.80;;;0.80;;
6255;SDS011;3161;48.794;9.784;2022-09-20T15:51:24;2.37;;;0.60;;
6255;SDS011;3161;48.794;9.784;2022-09-20T15:54:00;6.17;;;1.57;;
6255;SDS011;3161;48.794;9.784;2022-09-20T15:56:31;7.17;;;1.33;;
6255;SDS011;3161;48.794;9.784;2022-09-20T15:59:04;6.60;;;0.80;;
6255;SDS011;3161;48.794;9.784;2022-09-20T16:01:36;3.10;;;1.03;;
6255;SDS011;3161;48.794;9.784;2022-09-20T16:04:12;1.77;;;0.70;;
6255;SDS011;3161;48.794;9.784;2022-09-20T16:06:38;4.67;;;1.10;;
6255;SDS011;3161;48.794;9.784;2022-09-20T16:09:08;2.83;;;0.87;;
6255;SDS011;3161;48.794;9.784;2022-09-20T16:11:36;2.00;;;0.90;;
6255;SDS011;3161;48.794;9.784;2022-09-20T16:14:05;1.20;;;0.57;;
6255;SDS011;3161;48.794;9.784;2022-09-20T16:16:33;4.53;;;1.00;;
6255;SDS011;3161;48.794;9.784;2022-09-20T16:19:01;1.50;;;0.80;;
6255;SDS011;3161;48.794;9.784;2022-09-20T16:21:40;2.17;;;0.93;;
6255;SDS011;3161;48.794;9.784;2022-09-20T16:24:09;3.37;;;0.60;;
6255;SDS011;3161;48.794;9.784;2022-09-20T16:26:40;3.13;;;1.10;;
6255;SDS011;3161;48.794;9.784;2022-09-20T16:29:08;10.83;;;5.87;;
6255;SDS011;3161;48.794;9.784;2022-09-20T16:31:40;2.83;;;1.80;;
6255;SDS011;3161;48.794;9.784;2022-09-20T16:34:14;3.77;;;1.27;;
6255;SDS011;3161;48.794;9.784;2022-09-20T16:36:49;1.97;;;0.73;;
6255;SDS011;3161;48.794;9.784;2022-09-20T16:39:19;1.73;;;0.70;;
6255;SDS011;3161;48.794;9.784;2022-09-20T16:41:54;3.83;;;1.40;;
6255;SDS011;3161;48.794;9.784;2022-09-20T16:44:25;3.70;;;1.10;;
6255;SDS011;3161;48.794;9.784;2022-09-20T16:46:53;4.10;;;1.20;;
6255;SDS011;3161;48.794;9.784;2022-09-20T16:49:20;1.60;;;0.90;;
6255;SDS011;3161;48.794;9.784;2022-09-20T16:51:49;1.80;;;1.07;;
6255;SDS011;3161;48.794;9.784;2022-09-20T16:54:16;2.70;;;0.90;;
6255;SDS011;3161;48.794;9.784;2022-09-20T16:56:45;6.23;;;1.00;;
6255;SDS011;3161;48.794;9.784;2022-09-20T16:59:16;1.93;;;1.07;;
6255;SDS011;3161;48.794;9.784;2022-09-20T17:01:49;2.57;;;1.13;;
6255;SDS011;3161;48.794;9.784;2022-09-20T17:04:17;3.43;;;1.20;;
6255;SDS011;3161;48.794;9.784;2022-09-20T17:06:46;2.30;;;1.40;;
6255;SDS011;3161;48.794;9.784;2022-09-20T17:09:15;2.93;;;1.83;;
6255;SDS011;3161;48.794;9.784;2022-09-20T17:11:43;10.83;;;2.93;;
6255;SDS011;3161;48.794;9.784;2022-09-20T17:14:14;24.97;;;6.63;;
6255;SDS011;3161;48.794;9.784;2022-09-20T17:16:44;7.00;;;2.67;;
6255;SDS011;3161;48.794;9.784;2022-09-20T17:19:16;3.87;;;2.07;;
6255;SDS011;3161;48.794;9.784;2022-09-20T17:21:47;8.30;;;2.70;;
6255;SDS011;3161;48.794;9.784;2022-09-20T17:24:15;8.03;;;3.37;;
6255;SDS011;3161;48.794;9.784;2022-09-20T17:26:47;4.80;;;2.87;;
6255;SDS011;3161;48.794;9.784;2022-09-20T17:29:15;1.87;;;1.60;;
6255;SDS011;3161;48.794;9.784;2022-09-20T17:31:45;6.47;;;1.30;;
6255;SDS011;3161;48.794;9.784;2022-09-20T17:34:15;4.00;;;1.27;;
6255;SDS011;3161;48.794;9.784;2022-09-20T17:36:45;5.40;;;1.60;;
6255;SDS011;3161;48.794;9.784;2022-09-20T17:39:14;2.90;;;2.03;;
6255;SDS011;3161;48.794;9.784;2022-09-20T17:41:43;15.67;;;5.93;;
6255;SDS011;3161;48.794;9.784;2022-09-20T17:44:12;10.73;;;5.13;;
6255;SDS011;3161;48.794;9.784;2022-09-20T17:46:41;4.60;;;2.60;;
6255;SDS011;3161;48.794;9.784;2022-09-20T17:49:11;3.17;;;2.10;;
6255;SDS011;3161;48.794;9.784;2022-09-20T17:51:41;4.23;;;2.13;;
6255;SDS011;3161;48.794;9.784;2022-09-20T17:54:11;1.60;;;1.20;;
6255;SDS011;3161;48.794;9.784;2022-09-20T17:59:21;4.33;;;2.23;;
6255;SDS011;3161;48.794;9.784;2022-09-20T18:01:49;5.13;;;2.30;;
6255;SDS011;3161;48.794;9.784;2022-09-20T18:04:19;3.87;;;2.20;;
6255;SDS011;3161;48.794;9.784;2022-09-20T18:06:49;5.03;;;2.10;;
6255;SDS011;3161;48.794;9.784;2022-09-20T18:09:21;4.20;;;2.00;;
6255;SDS011;3161;48.794;9.784;2022-09-20T18:11:54;5.80;;;1.97;;
6255;SDS011;3161;48.794;9.784;2022-09-20T18:14:19;4.33;;;1.60;;
6255;SDS011;3161;48.794;9.784;2022-09-20T18:16:52;3.93;;;1.83;;
6255;SDS011;3161;48.794;9.784;2022-09-20T18:19:20;2.77;;;1.90;;
6255;SDS011;3161;48.794;9.784;2022-09-20T18:21:48;3.37;;;2.00;;
6255;SDS011;3161;48.794;9.784;2022-09-20T18:24:16;10.90;;;3.10;;
6255;SDS011;3161;48.794;9.784;2022-09-20T18:26:44;3.83;;;2.50;;
6255;SDS011;3161;48.794;9.784;2022-09-20T18:29:12;6.13;;;2.47;;
6255;SDS011;3161;48.794;9.784;2022-09-20T18:31:47;13.03;;;3.07;;
6255;SDS011;3161;48.794;9.784;2022-09-20T18:34:18;5.03;;;3.03;;
6255;SDS011;3161;48.794;9.784;2022-09-20T18:36:54;16.27;;;3.90;;
6255;SDS011;3161;48.794;9.784;2022-09-20T18:39:23;5.87;;;3.40;;
6255;SDS011;3161;48.794;9.784;2022-09-20T18:41:57;8.23;;;5.27;;
6255;SDS011;3161;48.794;9.784;2022-09-20T18:44:25;13.03;;;7.90;;
6255;SDS011;3161;48.794;9.784;2022-09-20T18:46:58;16.13;;;8.57;;
6255;SDS011;3161;48.794;9.784;2022-09-20T18:49:27;10.57;;;6.40;;
6255;SDS011;3161;48.794;9.784;2022-09-20T18:51:55;9.97;;;4.50;;
6255;SDS011;3161;48.794;9.784;2022-09-20T18:54:23;7.77;;;4.10;;
6255;SDS011;3161;48.794;9.784;2022-09-20T18:56:53;9.27;;;3.73;;
6255;SDS011;3161;48.794;9.784;2022-09-20T18:59:21;3.60;;;2.60;;
6255;SDS011;3161;48.794;9.784;2022-09-20T19:09:58;6.83;;;2.00;;
6255;SDS011;3161;48.794;9.784;2022-09-20T19:20:57;4.00;;;2.40;;
6255;SDS011;3161;48.794;9.784;2022-09-20T19:23:33;4.50;;;2.63;;
6255;SDS011;3161;48.794;9.784;2022-09-20T19:26:21;3.97;;;2.60;;
6255;SDS011;3161;48.794;9.784;2022-09-20T19:28:51;2.90;;;2.57;;
6255;SDS011;3161;48.794;9.784;2022-09-20T19:31:21;6.63;;;2.40;;
6255;SDS011;3161;48.794;9.784;2022-09-20T19:33:51;4.37;;;2.50;;
6255;SDS011;3161;48.794;9.784;2022-09-20T19:36:20;8.20;;;3.23;;
6255;SDS011;3161;48.794;9.784;2022-09-20T19:44:09;4.20;;;2.27;;
6255;SDS011;3161;48.794;9.784;2022-09-20T19:49:22;4.17;;;2.97;;
6255;SDS011;3161;48.794;9.784;2022-09-20T19:52:11;6.53;;;2.10;;
6255;SDS011;3161;48.794;9.784;2022-09-20T19:54:39;4.40;;;2.37;;
6255;SDS011;3161;48.794;9.784;2022-09-20T19:57:10;5.90;;;3.20;;
6255;SDS011;3161;48.794;9.784;2022-09-20T19:59:40;5.20;;;3.47;;
6255;SDS011;3161;48.794;9.784;2022-09-20T20:02:09;5.40;;;2.90;;
6255;SDS011;3161;48.794;9.784;2022-09-20T20:04:38;8.17;;;5.13;;
6255;SDS011;3161;48.794;9.784;2022-09-20T20:07:19;6.07;;;2.97;;
6255;SDS011;3161;48.794;9.784;2022-09-20T20:12:40;4.63;;;3.40;;
6255;SDS011;3161;48.794;9.784;2022-09-20T20:15:16;4.07;;;3.27;;
6255;SDS011;3161;48.794;9.784;2022-09-20T20:18:13;4.47;;;3.20;;
6255;SDS011;3161;48.794;9.784;2022-09-20T20:20:42;3.83;;;3.13;;
6255;SDS011;3161;48.794;9.784;2022-09-20T20:23:18;3.47;;;2.80;;
6255;SDS011;3161;48.794;9.784;2022-09-20T20:28:18;4.20;;;2.47;;
6255;SDS011;3161;48.794;9.784;2022-09-20T20:30:45;5.40;;;2.40;;